Time;durP1;ratioP1;P1;durP2;ratioP2;P2;SDS_P1;SDS_P2;PMS_P1;PMS_P2;Temp;Humidity;BMP_temperature;BMP_pressure;BME280_temperature;BME280_humidity;BME280_pressure;Samples;Min_cycle;Max_cycle;Signal;HPM_P1;HPM_P2
2023/08/06 00:01:59;;;;;;;4.63;4.33;;;;;;;;;;5096372;28;20699;-64
2023/08/06 00:04:28;;;;;;;5.27;4.87;;;;;;;;;;5095197;28;20592;-63
2023/08/06 00:06:58;;;;;;;4.93;3.43;;;;;;;;;;5096301;28;21181;-66
2023/08/06 00:09:26;;;;;;;5.50;4.50;;;;;;;;;;5095236;28;20574;-65
2023/08/06 00:11:56;;;;;;;4.90;4.43;;;;;;;;;;5076955;28;20748;-64
2023/08/06 00:14:26;;;;;;;7.20;4.73;;;;;;;;;;5079108;28;21334;-64
2023/08/06 00:16:54;;;;;;;5.17;4.03;;;;;;;;;;5097864;28;21224;-64
2023/08/06 00:19:22;;;;;;;4.90;4.50;;;;;;;;;;5096629;28;20667;-64
2023/08/06 00:21:50;;;;;;;3.90;3.60;;;;;;;;;;5097354;28;20683;-64
2023/08/06 00:24:18;;;;;;;4.27;3.97;;;;;;;;;;5097209;28;20675;-64
2023/08/06 00:26:47;;;;;;;5.60;3.63;;;;;;;;;;5092247;28;20693;-64
2023/08/06 00:29:15;;;;;;;3.80;3.50;;;;;;;;;;5076618;28;20709;-66
2023/08/06 00:31:45;;;;;;;11.20;4.40;;;;;;;;;;5077334;28;20733;-64
2023/08/06 00:34:14;;;;;;;3.80;3.60;;;;;;;;;;5080465;28;20715;-64
2023/08/06 00:36:42;;;;;;;6.17;4.17;;;;;;;;;;5095508;28;20724;-64
2023/08/06 00:39:10;;;;;;;4.30;3.73;;;;;;;;;;5099966;28;21047;-63
2023/08/06 00:41:38;;;;;;;6.93;3.93;;;;;;;;;;5099931;28;20700;-64
2023/08/06 00:44:07;;;;;;;3.73;3.53;;;;;;;;;;5101266;28;20926;-64
2023/08/06 00:46:35;;;;;;;6.30;3.77;;;;;;;;;;5100698;28;20689;-67
2023/08/06 00:49:05;;;;;;;4.70;3.60;;;;;;;;;;5101386;28;21080;-65
2023/08/06 00:51:33;;;;;;;4.10;3.80;;;;;;;;;;5082943;28;20692;-64
2023/08/06 00:54:02;;;;;;;3.83;3.47;;;;;;;;;;5082175;28;21259;-64
2023/08/06 00:56:30;;;;;;;4.27;3.87;;;;;;;;;;5101205;28;20677;-64
2023/08/06 00:58:59;;;;;;;5.50;3.40;;;;;;;;;;5101242;28;20793;-64
2023/08/06 01:01:27;;;;;;;5.53;3.10;;;;;;;;;;5102393;28;20685;-65
2023/08/06 01:03:56;;;;;;;3.30;3.10;;;;;;;;;;5104404;28;20711;-65
2023/08/06 01:06:33;;;;;;;7.93;4.73;;;;;;;;;;5105121;28;20688;-65
2023/08/06 01:09:08;;;;;;;6.43;3.40;;;;;;;;;;5088290;28;20726;-66
2023/08/06 01:11:46;;;;;;;4.20;3.80;;;;;;;;;;5095193;28;20737;-63
2023/08/06 01:14:17;;;;;;;3.70;3.40;;;;;;;;;;5085390;28;20703;-64
2023/08/06 01:16:45;;;;;;;3.63;3.43;;;;;;;;;;5085940;28;20650;-65
2023/08/06 01:19:18;;;;;;;4.20;3.20;;;;;;;;;;5087562;28;20740;-64
2023/08/06 01:21:47;;;;;;;4.00;3.53;;;;;;;;;;5092682;28;20580;-63
2023/08/06 01:24:16;;;;;;;5.07;3.57;;;;;;;;;;5105752;28;21056;-64
2023/08/06 01:26:47;;;;;;;3.83;3.53;;;;;;;;;;5069905;28;20641;-64
2023/08/06 01:29:19;;;;;;;7.33;3.83;;;;;;;;;;5101709;28;20686;-65
2023/08/06 01:31:50;;;;;;;6.93;3.77;;;;;;;;;;5087391;28;20652;-64
2023/08/06 01:34:21;;;;;;;4.43;4.10;;;;;;;;;;5087960;28;21093;-63
2023/08/06 01:36:52;;;;;;;4.40;4.10;;;;;;;;;;5087781;28;20629;-63
2023/08/06 01:39:21;;;;;;;4.23;3.93;;;;;;;;;;5088081;28;20647;-64
2023/08/06 01:41:49;;;;;;;4.53;3.70;;;;;;;;;;5104616;28;20686;-64
2023/08/06 01:44:21;;;;;;;6.30;4.13;;;;;;;;;;5105487;28;20692;-63
2023/08/06 01:46:49;;;;;;;4.53;3.77;;;;;;;;;;5103912;28;21258;-65
2023/08/06 01:49:17;;;;;;;4.70;4.30;;;;;;;;;;5105782;28;20658;-64
2023/08/06 01:51:45;;;;;;;3.87;3.67;;;;;;;;;;5104769;28;20703;-63
2023/08/06 01:54:15;;;;;;;3.90;3.57;;;;;;;;;;5104793;28;20710;-64
2023/08/06 01:56:43;;;;;;;5.70;4.07;;;;;;;;;;5080978;28;20697;-64
2023/08/06 01:59:11;;;;;;;3.87;3.67;;;;;;;;;;5094218;28;20675;-64
2023/08/06 02:01:39;;;;;;;6.83;3.90;;;;;;;;;;5086482;28;21115;-65
2023/08/06 02:04:07;;;;;;;8.33;3.73;;;;;;;;;;5086068;28;20772;-63
2023/08/06 02:06:35;;;;;;;7.73;3.40;;;;;;;;;;5086472;28;20728;-64
2023/08/06 02:09:04;;;;;;;4.00;3.70;;;;;;;;;;5105182;28;20694;-64
2023/08/06 02:11:33;;;;;;;3.80;3.50;;;;;;;;;;5063777;28;21226;-63
2023/08/06 02:14:01;;;;;;;6.50;4.10;;;;;;;;;;5087673;28;20720;-63
2023/08/06 02:16:30;;;;;;;5.30;4.13;;;;;;;;;;5104724;28;20685;-64
2023/08/06 02:18:58;;;;;;;4.00;3.60;;;;;;;;;;5105148;28;20691;-63
2023/08/06 02:21:29;;;;;;;3.63;3.33;;;;;;;;;;5105158;28;20666;-63
2023/08/06 02:23:57;;;;;;;3.70;3.40;;;;;;;;;;5105283;28;20695;-64
2023/08/06 02:26:25;;;;;;;5.37;3.70;;;;;;;;;;5104653;28;20652;-67
2023/08/06 02:28:55;;;;;;;8.63;3.60;;;;;;;;;;5104577;28;20679;-64
2023/08/06 02:31:23;;;;;;;5.13;3.70;;;;;;;;;;5106189;28;20618;-64
2023/08/06 02:33:53;;;;;;;4.77;3.53;;;;;;;;;;5104944;28;20686;-63
2023/08/06 02:36:24;;;;;;;4.47;4.03;;;;;;;;;;5087692;28;20680;-64
2023/08/06 02:38:53;;;;;;;4.00;3.60;;;;;;;;;;5103846;28;20608;-64
2023/08/06 02:41:21;;;;;;;3.43;3.23;;;;;;;;;;5087050;28;20795;-63
2023/08/06 02:43:49;;;;;;;7.63;3.27;;;;;;;;;;5104385;28;20675;-64
2023/08/06 02:46:19;;;;;;;6.17;3.30;;;;;;;;;;5104953;28;20672;-64
2023/08/06 02:48:47;;;;;;;3.70;3.40;;;;;;;;;;5103151;28;20627;-63
2023/08/06 02:51:15;;;;;;;6.80;3.97;;;;;;;;;;5095270;28;20687;-66
2023/08/06 02:53:43;;;;;;;3.87;3.47;;;;;;;;;;5064984;28;21238;-63
2023/08/06 02:56:14;;;;;;;3.43;2.90;;;;;;;;;;5074405;28;20681;-64
2023/08/06 02:59:02;;;;;;;4.67;3.37;;;;;;;;;;5103733;28;20691;-63
2023/08/06 03:01:52;;;;;;;5.60;3.50;;;;;;;;;;5103772;28;20663;-63
2023/08/06 03:04:27;;;;;;;3.67;3.00;;;;;;;;;;5067934;28;20675;-63
2023/08/06 03:06:55;;;;;;;4.20;2.73;;;;;;;;;;5102697;28;20675;-65
2023/08/06 03:09:27;;;;;;;7.70;2.83;;;;;;;;;;5085564;28;20659;-64
2023/08/06 03:11:56;;;;;;;3.63;3.10;;;;;;;;;;5090798;28;20741;-64
2023/08/06 03:14:24;;;;;;;2.27;2.07;;;;;;;;;;5072370;28;21099;-67
2023/08/06 03:16:54;;;;;;;2.33;2.13;;;;;;;;;;5104616;28;20664;-64
2023/08/06 03:19:22;;;;;;;3.23;1.90;;;;;;;;;;5086732;28;20672;-63
2023/08/06 03:21:50;;;;;;;3.30;2.13;;;;;;;;;;5104980;28;20697;-65
2023/08/06 03:24:18;;;;;;;7.73;2.53;;;;;;;;;;5101101;28;20660;-64
2023/08/06 03:26:48;;;;;;;5.57;2.93;;;;;;;;;;5077889;28;20713;-64
2023/08/06 03:29:16;;;;;;;4.20;1.80;;;;;;;;;;5084241;28;21012;-65
2023/08/06 03:31:45;;;;;;;5.20;1.70;;;;;;;;;;5081827;28;20712;-64
2023/08/06 03:34:17;;;;;;;3.93;2.10;;;;;;;;;;5081974;28;20698;-65
2023/08/06 03:36:46;;;;;;;4.37;1.77;;;;;;;;;;5076568;28;20715;-64
2023/08/06 03:39:14;;;;;;;2.57;1.60;;;;;;;;;;5100829;28;20706;-65
2023/08/06 03:41:43;;;;;;;2.30;1.80;;;;;;;;;;5077172;28;20659;-63
2023/08/06 03:44:12;;;;;;;5.00;1.60;;;;;;;;;;5085856;28;20686;-63
2023/08/06 03:46:40;;;;;;;5.40;1.87;;;;;;;;;;5103774;28;20611;-65
2023/08/06 03:49:10;;;;;;;7.67;1.90;;;;;;;;;;5084777;28;21298;-64
2023/08/06 03:51:39;;;;;;;5.03;1.67;;;;;;;;;;5085257;28;20652;-65
2023/08/06 03:54:08;;;;;;;2.77;1.80;;;;;;;;;;5102534;28;20708;-63
2023/08/06 03:56:36;;;;;;;3.77;1.67;;;;;;;;;;5083560;28;20678;-64
2023/08/06 03:59:04;;;;;;;4.30;1.83;;;;;;;;;;5099053;28;20693;-63
2023/08/06 04:01:32;;;;;;;4.03;1.97;;;;;;;;;;5102494;28;20709;-64
2023/08/06 04:04:01;;;;;;;7.07;2.70;;;;;;;;;;5083557;28;21242;-64
2023/08/06 04:06:29;;;;;;;6.90;1.67;;;;;;;;;;5102247;28;20689;-64
2023/08/06 04:08:59;;;;;;;4.40;2.10;;;;;;;;;;5100897;28;20675;-64
2023/08/06 04:11:27;;;;;;;6.33;2.23;;;;;;;;;;5092591;28;20752;-63
2023/08/06 04:13:55;;;;;;;7.80;2.77;;;;;;;;;;5083095;28;20689;-65
2023/08/06 04:16:27;;;;;;;8.13;2.30;;;;;;;;;;5102456;28;20673;-63
2023/08/06 04:18:56;;;;;;;3.37;1.90;;;;;;;;;;5103442;28;20667;-66
2023/08/06 04:21:24;;;;;;;6.37;1.70;;;;;;;;;;5103379;28;20721;-64
2023/08/06 04:23:52;;;;;;;6.07;1.60;;;;;;;;;;5103309;28;20647;-63
2023/08/06 04:26:22;;;;;;;3.70;2.10;;;;;;;;;;5083924;28;20683;-63
2023/08/06 04:28:50;;;;;;;2.50;1.70;;;;;;;;;;5065664;28;20682;-62
2023/08/06 04:31:19;;;;;;;2.80;1.63;;;;;;;;;;5064635;28;20660;-62
2023/08/06 04:33:47;;;;;;;4.20;1.93;;;;;;;;;;5082888;28;20677;-62
2023/08/06 04:36:17;;;;;;;5.67;1.77;;;;;;;;;;5064234;28;20700;-63
2023/08/06 04:38:47;;;;;;;3.87;1.90;;;;;;;;;;5078240;28;20636;-63
2023/08/06 04:41:17;;;;;;;2.20;2.03;;;;;;;;;;5072026;28;20664;-62
2023/08/06 04:43:47;;;;;;;14.40;2.33;;;;;;;;;;5096483;28;21081;-62
2023/08/06 04:46:15;;;;;;;6.20;1.80;;;;;;;;;;5102070;28;20687;-64
2023/08/06 04:48:43;;;;;;;4.30;1.63;;;;;;;;;;5084903;28;20755;-66
2023/08/06 04:51:11;;;;;;;3.33;1.90;;;;;;;;;;5103154;28;20667;-64
2023/08/06 04:53:40;;;;;;;3.63;2.50;;;;;;;;;;5081707;28;20691;-64
2023/08/06 04:56:08;;;;;;;4.90;1.80;;;;;;;;;;5103428;28;20723;-64
2023/08/06 04:58:36;;;;;;;4.00;2.00;;;;;;;;;;5104642;28;20627;-65
2023/08/06 05:01:05;;;;;;;10.57;1.90;;;;;;;;;;5084701;28;20692;-63
2023/08/06 05:03:34;;;;;;;1.93;1.83;;;;;;;;;;5064906;28;21041;-64
2023/08/06 05:06:02;;;;;;;5.23;2.43;;;;;;;;;;5102496;28;20661;-64
2023/08/06 05:08:30;;;;;;;6.30;1.90;;;;;;;;;;5104636;28;20639;-64
2023/08/06 05:10:58;;;;;;;3.43;1.50;;;;;;;;;;5103990;28;20854;-65
2023/08/06 05:13:26;;;;;;;4.70;1.47;;;;;;;;;;5102975;28;20693;-64
2023/08/06 05:15:55;;;;;;;2.70;1.30;;;;;;;;;;5084626;28;20734;-64
2023/08/06 05:18:24;;;;;;;2.67;1.60;;;;;;;;;;5104321;28;20663;-64
2023/08/06 05:20:53;;;;;;;4.83;1.57;;;;;;;;;;5108030;28;20667;-63
2023/08/06 05:23:21;;;;;;;4.23;1.67;;;;;;;;;;5107383;28;20671;-63
2023/08/06 05:25:49;;;;;;;3.40;1.27;;;;;;;;;;5104787;28;20717;-63
2023/08/06 05:28:17;;;;;;;5.47;1.37;;;;;;;;;;5103832;28;20603;-62
2023/08/06 05:30:45;;;;;;;2.77;1.53;;;;;;;;;;5107593;28;20725;-66
2023/08/06 05:33:14;;;;;;;4.20;1.40;;;;;;;;;;5090062;28;20712;-62
2023/08/06 05:35:43;;;;;;;1.37;1.23;;;;;;;;;;5108123;28;20745;-63
2023/08/06 05:38:11;;;;;;;3.50;1.40;;;;;;;;;;5107205;28;20659;-64
2023/08/06 05:40:40;;;;;;;2.83;0.90;;;;;;;;;;5101162;28;20891;-64
2023/08/06 05:43:08;;;;;;;2.77;1.13;;;;;;;;;;5098907;28;20672;-65
2023/08/06 05:45:36;;;;;;;2.40;1.30;;;;;;;;;;5105569;28;20685;-64
2023/08/06 05:48:04;;;;;;;3.13;1.27;;;;;;;;;;5095879;28;20698;-62
2023/08/06 05:50:33;;;;;;;4.03;1.20;;;;;;;;;;5100695;28;20668;-62
2023/08/06 05:53:02;;;;;;;1.63;0.93;;;;;;;;;;5104252;28;20723;-62
2023/08/06 05:55:32;;;;;;;3.10;0.90;;;;;;;;;;5101395;28;20714;-63
2023/08/06 05:58:00;;;;;;;1.93;1.00;;;;;;;;;;5112062;28;20690;-65
2023/08/06 06:00:28;;;;;;;3.00;1.00;;;;;;;;;;5105522;28;20599;-62
2023/08/06 06:02:57;;;;;;;10.90;1.13;;;;;;;;;;5105129;28;20704;-65
2023/08/06 06:05:25;;;;;;;1.50;1.00;;;;;;;;;;5102590;28;20682;-66
2023/08/06 06:07:53;;;;;;;2.67;1.47;;;;;;;;;;5105044;28;20713;-65
2023/08/06 06:10:22;;;;;;;1.20;1.10;;;;;;;;;;5104218;28;20710;-63
2023/08/06 06:12:51;;;;;;;0.83;0.83;;;;;;;;;;5097246;28;20640;-63
2023/08/06 06:15:19;;;;;;;2.13;1.10;;;;;;;;;;5087361;28;20723;-62
2023/08/06 06:17:47;;;;;;;2.03;0.90;;;;;;;;;;5105914;28;20697;-64
2023/08/06 06:20:15;;;;;;;4.23;1.10;;;;;;;;;;5105704;28;20689;-62
2023/08/06 06:22:44;;;;;;;1.70;1.60;;;;;;;;;;5101348;28;21093;-63
2023/08/06 06:25:12;;;;;;;3.53;1.03;;;;;;;;;;5087807;28;20675;-64
2023/08/06 06:27:41;;;;;;;1.93;1.10;;;;;;;;;;5105241;28;20712;-64
2023/08/06 06:30:11;;;;;;;2.20;1.00;;;;;;;;;;5104141;28;20663;-63
2023/08/06 06:32:40;;;;;;;1.50;1.33;;;;;;;;;;5105339;28;20721;-65
2023/08/06 06:35:10;;;;;;;2.27;1.37;;;;;;;;;;5105369;28;20688;-63
2023/08/06 06:37:38;;;;;;;1.63;1.40;;;;;;;;;;5104954;28;20760;-62
2023/08/06 06:40:07;;;;;;;1.37;1.27;;;;;;;;;;5104305;28;20627;-63
2023/08/06 06:42:35;;;;;;;1.30;0.93;;;;;;;;;;5104550;28;20677;-64
2023/08/06 06:45:05;;;;;;;3.57;1.17;;;;;;;;;;5087514;28;20685;-62
2023/08/06 06:47:33;;;;;;;1.63;0.90;;;;;;;;;;5106197;28;20671;-63
2023/08/06 06:50:02;;;;;;;1.37;0.90;;;;;;;;;;5105907;28;20693;-63
2023/08/06 06:52:30;;;;;;;1.07;0.80;;;;;;;;;;5106049;28;20633;-64
2023/08/06 06:54:58;;;;;;;1.17;1.03;;;;;;;;;;5106223;28;20697;-62
2023/08/06 06:57:26;;;;;;;1.20;1.07;;;;;;;;;;5106091;28;20696;-63
2023/08/06 06:59:54;;;;;;;1.13;0.90;;;;;;;;;;5105577;28;20606;-62
2023/08/06 07:02:24;;;;;;;2.80;2.53;;;;;;;;;;5085385;28;20660;-62
2023/08/06 07:04:52;;;;;;;3.40;1.63;;;;;;;;;;5102999;28;20660;-63
2023/08/06 07:07:20;;;;;;;2.70;1.40;;;;;;;;;;5105316;28;20590;-63
2023/08/06 07:09:48;;;;;;;1.27;0.80;;;;;;;;;;5105116;28;20711;-62
2023/08/06 07:12:16;;;;;;;2.67;0.90;;;;;;;;;;5100621;28;20699;-64
2023/08/06 07:14:45;;;;;;;0.97;0.70;;;;;;;;;;5105043;28;21186;-64
2023/08/06 07:17:13;;;;;;;2.60;0.80;;;;;;;;;;5102824;28;20685;-64
2023/08/06 07:19:42;;;;;;;1.00;0.80;;;;;;;;;;5102382;28;20698;-63
2023/08/06 07:22:10;;;;;;;0.70;0.70;;;;;;;;;;5104316;28;20697;-63
2023/08/06 07:24:39;;;;;;;2.17;0.70;;;;;;;;;;5101390;28;20712;-65
2023/08/06 07:27:07;;;;;;;4.30;0.73;;;;;;;;;;5103456;28;20720;-63
2023/08/06 07:29:36;;;;;;;8.93;0.90;;;;;;;;;;5098136;28;20728;-64
2023/08/06 07:32:04;;;;;;;0.90;0.70;;;;;;;;;;5087810;28;20689;-65
2023/08/06 07:34:32;;;;;;;1.63;0.80;;;;;;;;;;5100617;28;20704;-64
2023/08/06 07:37:02;;;;;;;0.70;0.70;;;;;;;;;;5086604;28;20737;-62
2023/08/06 07:39:30;;;;;;;0.73;0.67;;;;;;;;;;5107066;28;20683;-62
2023/08/06 07:41:58;;;;;;;0.80;0.80;;;;;;;;;;5103236;28;20675;-63
2023/08/06 07:44:26;;;;;;;0.73;0.60;;;;;;;;;;5102319;28;20693;-63
2023/08/06 07:46:54;;;;;;;2.50;0.60;;;;;;;;;;5105634;28;20675;-65
2023/08/06 07:49:23;;;;;;;0.70;0.60;;;;;;;;;;5103644;28;20671;-64
2023/08/06 07:51:52;;;;;;;1.10;0.70;;;;;;;;;;5104966;28;20713;-63
2023/08/06 07:54:22;;;;;;;5.57;0.70;;;;;;;;;;5104972;28;20693;-63
2023/08/06 07:56:50;;;;;;;0.60;0.53;;;;;;;;;;5086446;28;20711;-64
2023/08/06 07:59:19;;;;;;;0.70;0.70;;;;;;;;;;5103925;28;20691;-63
2023/08/06 08:01:47;;;;;;;0.73;0.70;;;;;;;;;;5103220;28;20680;-64
2023/08/06 08:04:16;;;;;;;0.63;0.63;;;;;;;;;;5105566;28;20708;-65
2023/08/06 08:06:44;;;;;;;0.70;0.70;;;;;;;;;;5109104;28;20648;-66
2023/08/06 08:09:13;;;;;;;0.60;0.60;;;;;;;;;;5102003;28;20628;-63
2023/08/06 08:11:43;;;;;;;0.63;0.63;;;;;;;;;;5108844;28;20624;-64
2023/08/06 08:14:11;;;;;;;3.33;0.77;;;;;;;;;;5108083;28;20663;-64
2023/08/06 08:16:39;;;;;;;0.60;0.60;;;;;;;;;;5089526;28;20712;-64
2023/08/06 08:19:07;;;;;;;1.33;0.67;;;;;;;;;;5088428;28;20678;-65
2023/08/06 08:21:35;;;;;;;0.80;0.67;;;;;;;;;;5104252;28;20691;-66
2023/08/06 08:24:05;;;;;;;0.60;0.60;;;;;;;;;;5095965;28;21063;-65
2023/08/06 08:26:34;;;;;;;0.90;0.60;;;;;;;;;;5079764;28;20648;-66
2023/08/06 08:29:03;;;;;;;0.60;0.60;;;;;;;;;;5104336;28;20657;-63
2023/08/06 08:31:38;;;;;;;1.00;0.60;;;;;;;;;;5097886;28;20645;-64
2023/08/06 08:34:06;;;;;;;0.90;0.50;;;;;;;;;;5104519;28;20667;-64
2023/08/06 08:36:34;;;;;;;2.10;0.70;;;;;;;;;;5103415;28;20632;-62
2023/08/06 08:39:03;;;;;;;0.60;0.60;;;;;;;;;;5086245;28;20678;-62
2023/08/06 08:41:32;;;;;;;0.80;0.60;;;;;;;;;;5103660;28;20660;-63
2023/08/06 08:44:01;;;;;;;0.60;0.50;;;;;;;;;;5083913;28;20710;-63
2023/08/06 08:46:31;;;;;;;1.10;0.57;;;;;;;;;;5109649;28;20710;-64
2023/08/06 08:49:00;;;;;;;0.77;0.70;;;;;;;;;;5105986;28;21009;-63
2023/08/06 08:51:29;;;;;;;0.67;0.67;;;;;;;;;;5103921;28;20652;-63
2023/08/06 08:53:57;;;;;;;0.80;0.80;;;;;;;;;;5105179;28;20641;-63
2023/08/06 08:56:26;;;;;;;1.80;1.70;;;;;;;;;;5105808;28;20716;-64
2023/08/06 08:58:55;;;;;;;1.60;0.60;;;;;;;;;;5108801;28;20652;-63
2023/08/06 09:01:23;;;;;;;0.70;0.70;;;;;;;;;;5108933;28;20612;-64
2023/08/06 09:03:53;;;;;;;0.60;0.50;;;;;;;;;;5109056;28;20638;-64
2023/08/06 09:06:22;;;;;;;0.60;0.60;;;;;;;;;;5104731;28;20712;-65
2023/08/06 09:08:53;;;;;;;2.50;0.67;;;;;;;;;;5092397;28;20642;-65
2023/08/06 09:11:22;;;;;;;0.80;0.80;;;;;;;;;;5106355;28;20722;-64
2023/08/06 09:13:50;;;;;;;0.70;0.70;;;;;;;;;;5093151;28;20624;-64
2023/08/06 09:16:18;;;;;;;0.67;0.67;;;;;;;;;;5102347;28;20619;-66
2023/08/06 09:18:47;;;;;;;0.93;0.83;;;;;;;;;;5111422;28;20740;-63
2023/08/06 09:21:17;;;;;;;0.63;0.63;;;;;;;;;;5111777;28;20623;-67
2023/08/06 09:23:45;;;;;;;1.43;0.80;;;;;;;;;;5094203;28;20707;-65
2023/08/06 09:26:14;;;;;;;0.60;0.60;;;;;;;;;;5093571;28;20676;-63
2023/08/06 09:28:43;;;;;;;0.60;0.60;;;;;;;;;;5092341;28;20695;-66
2023/08/06 09:31:34;;;;;;;0.60;0.60;;;;;;;;;;5109840;28;20615;-63
2023/08/06 09:34:02;;;;;;;0.93;0.93;;;;;;;;;;5111558;28;20613;-64
2023/08/06 09:36:32;;;;;;;0.70;0.63;;;;;;;;;;5110613;28;20656;-64
2023/08/06 09:39:00;;;;;;;0.60;0.60;;;;;;;;;;5092669;28;21087;-65
2023/08/06 09:41:29;;;;;;;0.60;0.60;;;;;;;;;;5109782;28;20628;-63
2023/08/06 09:43:57;;;;;;;0.70;0.70;;;;;;;;;;5110824;28;20603;-66
2023/08/06 09:46:25;;;;;;;0.63;0.63;;;;;;;;;;5108378;28;20645;-67
2023/08/06 09:48:54;;;;;;;0.73;0.70;;;;;;;;;;5110497;28;20619;-64
2023/08/06 09:51:22;;;;;;;0.63;0.63;;;;;;;;;;5093403;28;21050;-64
2023/08/06 09:53:52;;;;;;;1.07;1.00;;;;;;;;;;5109658;28;20615;-65
2023/08/06 09:56:20;;;;;;;0.70;0.70;;;;;;;;;;5109760;28;20645;-65
2023/08/06 09:58:48;;;;;;;0.67;0.67;;;;;;;;;;5090954;28;20710;-64
2023/08/06 10:01:18;;;;;;;0.70;0.70;;;;;;;;;;5102763;28;20734;-68
2023/08/06 10:03:46;;;;;;;1.00;0.90;;;;;;;;;;5086687;28;20702;-63
2023/08/06 10:06:15;;;;;;;0.80;0.60;;;;;;;;;;5087305;28;21087;-65
2023/08/06 10:08:43;;;;;;;0.80;0.80;;;;;;;;;;5069654;28;20689;-67
2023/08/06 10:11:13;;;;;;;0.73;0.73;;;;;;;;;;5087922;28;20686;-64
2023/08/06 10:13:41;;;;;;;1.63;0.60;;;;;;;;;;5088654;28;20647;-64
2023/08/06 10:16:10;;;;;;;0.97;0.90;;;;;;;;;;5101880;28;20584;-64
2023/08/06 10:18:39;;;;;;;1.97;1.00;;;;;;;;;;5107259;28;20739;-64
2023/08/06 10:21:09;;;;;;;1.10;0.80;;;;;;;;;;5108937;28;20595;-64
2023/08/06 10:23:38;;;;;;;0.70;0.70;;;;;;;;;;5107205;28;21150;-64
2023/08/06 10:26:06;;;;;;;0.97;0.87;;;;;;;;;;5107514;28;20609;-64
2023/08/06 10:28:40;;;;;;;0.90;0.90;;;;;;;;;;5107190;28;20671;-64
2023/08/06 10:31:08;;;;;;;0.83;0.70;;;;;;;;;;5090118;28;20620;-63
2023/08/06 10:33:43;;;;;;;1.93;1.17;;;;;;;;;;5107269;28;20657;-65
2023/08/06 10:36:12;;;;;;;1.13;1.13;;;;;;;;;;5107420;28;20579;-64
2023/08/06 10:38:47;;;;;;;1.90;1.37;;;;;;;;;;5106792;28;20703;-65
2023/08/06 10:41:17;;;;;;;1.53;1.20;;;;;;;;;;5107512;28;20682;-66
2023/08/06 10:43:49;;;;;;;1.20;1.10;;;;;;;;;;5107501;28;21006;-64
2023/08/06 10:46:24;;;;;;;1.40;1.30;;;;;;;;;;5107662;28;20605;-66
2023/08/06 10:48:52;;;;;;;1.30;1.30;;;;;;;;;;5106209;28;20693;-64
2023/08/06 10:51:20;;;;;;;1.93;1.50;;;;;;;;;;5108682;28;20644;-67
2023/08/06 10:53:50;;;;;;;1.87;1.60;;;;;;;;;;5107799;28;20682;-64
2023/08/06 10:56:18;;;;;;;3.00;2.07;;;;;;;;;;5109273;28;20625;-64
2023/08/06 10:58:48;;;;;;;1.40;1.30;;;;;;;;;;5109539;28;20684;-65
2023/08/06 11:01:17;;;;;;;1.50;1.40;;;;;;;;;;5091345;28;20596;-66
2023/08/06 11:03:46;;;;;;;1.63;1.53;;;;;;;;;;5108156;28;20649;-65
2023/08/06 11:06:19;;;;;;;1.77;1.40;;;;;;;;;;5104610;28;20623;-64
2023/08/06 11:08:49;;;;;;;1.80;1.70;;;;;;;;;;5107660;28;20587;-69
2023/08/06 11:11:17;;;;;;;1.67;1.57;;;;;;;;;;5090823;28;20643;-69
2023/08/06 11:13:48;;;;;;;1.90;1.80;;;;;;;;;;5090727;28;20660;-69
2023/08/06 11:16:17;;;;;;;2.27;1.37;;;;;;;;;;5090204;28;20598;-69
2023/08/06 11:18:45;;;;;;;3.37;2.03;;;;;;;;;;5070327;28;20643;-69
2023/08/06 11:21:13;;;;;;;1.20;1.10;;;;;;;;;;5081684;28;21202;-69
2023/08/06 11:23:42;;;;;;;2.03;1.30;;;;;;;;;;5087295;28;20606;-69
2023/08/06 11:26:10;;;;;;;1.57;1.47;;;;;;;;;;5091020;28;20596;-69
2023/08/06 11:28:38;;;;;;;1.83;1.47;;;;;;;;;;5070304;28;20633;-69
2023/08/06 11:31:08;;;;;;;6.63;2.50;;;;;;;;;;5082696;28;20610;-69
2023/08/06 11:33:36;;;;;;;4.60;2.00;;;;;;;;;;5086045;28;20613;-69
2023/08/06 11:36:04;;;;;;;4.73;2.23;;;;;;;;;;5084410;28;20614;-69
2023/08/06 11:38:34;;;;;;;2.30;1.50;;;;;;;;;;5069207;28;20632;-69
2023/08/06 11:41:02;;;;;;;1.50;1.40;;;;;;;;;;5073464;28;20628;-69
2023/08/06 11:43:32;;;;;;;1.83;1.40;;;;;;;;;;5089572;28;20626;-69
2023/08/06 11:46:01;;;;;;;3.83;1.70;;;;;;;;;;5088399;28;20644;-68
2023/08/06 11:48:30;;;;;;;1.43;1.27;;;;;;;;;;5084279;28;20607;-69
2023/08/06 11:50:59;;;;;;;2.07;1.50;;;;;;;;;;5090151;28;20600;-70
2023/08/06 11:53:29;;;;;;;2.17;2.00;;;;;;;;;;5086929;28;20963;-70
2023/08/06 11:55:58;;;;;;;4.10;3.60;;;;;;;;;;5079998;28;20606;-69
2023/08/06 11:58:26;;;;;;;3.33;2.50;;;;;;;;;;5080167;28;20661;-69
2023/08/06 12:00:56;;;;;;;2.50;2.40;;;;;;;;;;5089772;28;20980;-67
2023/08/06 12:03:27;;;;;;;3.70;3.07;;;;;;;;;;5072183;28;21171;-70
2023/08/06 12:05:56;;;;;;;3.90;1.83;;;;;;;;;;5066390;28;20624;-68
2023/08/06 12:08:30;;;;;;;2.70;2.17;;;;;;;;;;5090859;28;20632;-68
2023/08/06 12:10:59;;;;;;;4.10;2.37;;;;;;;;;;5086715;28;20681;-69
2023/08/06 12:13:27;;;;;;;3.43;2.13;;;;;;;;;;5089234;28;20633;-69
2023/08/06 12:15:57;;;;;;;4.30;2.07;;;;;;;;;;5089206;28;20676;-67
2023/08/06 12:18:25;;;;;;;2.80;1.93;;;;;;;;;;5090377;28;21234;-67
2023/08/06 12:20:53;;;;;;;1.83;1.73;;;;;;;;;;5084376;28;20617;-69
2023/08/06 12:23:23;;;;;;;2.40;1.80;;;;;;;;;;5072182;28;20611;-69
2023/08/06 12:25:51;;;;;;;2.40;1.80;;;;;;;;;;5087554;28;20612;-70
2023/08/06 12:28:19;;;;;;;3.87;2.33;;;;;;;;;;5090081;28;20629;-70
2023/08/06 12:30:48;;;;;;;2.33;2.13;;;;;;;;;;5094080;28;20985;-70
2023/08/06 12:33:16;;;;;;;3.83;1.83;;;;;;;;;;5095149;28;20608;-69
2023/08/06 12:35:44;;;;;;;5.43;2.20;;;;;;;;;;5092899;28;20622;-69
2023/08/06 12:38:13;;;;;;;5.57;2.53;;;;;;;;;;5094420;28;21195;-68
2023/08/06 12:40:43;;;;;;;3.07;2.30;;;;;;;;;;5094604;28;20617;-68
2023/08/06 12:43:11;;;;;;;4.00;2.90;;;;;;;;;;5094631;28;20621;-69
2023/08/06 12:45:39;;;;;;;3.40;2.67;;;;;;;;;;5087727;28;20600;-69
2023/08/06 12:48:07;;;;;;;3.27;2.33;;;;;;;;;;5094639;28;20613;-69
2023/08/06 12:50:35;;;;;;;2.60;2.40;;;;;;;;;;5081823;28;20596;-68
2023/08/06 12:53:05;;;;;;;7.40;2.67;;;;;;;;;;5074413;28;20589;-68
2023/08/06 12:55:33;;;;;;;2.20;2.00;;;;;;;;;;5083899;28;20623;-68
2023/08/06 12:58:03;;;;;;;2.07;1.97;;;;;;;;;;5094386;28;20625;-68
2023/08/06 13:00:31;;;;;;;2.10;2.00;;;;;;;;;;5093948;28;20649;-68
2023/08/06 13:02:59;;;;;;;2.20;1.83;;;;;;;;;;5092763;28;20685;-69
2023/08/06 13:05:27;;;;;;;2.70;1.27;;;;;;;;;;5065815;28;20655;-68
2023/08/06 13:07:56;;;;;;;1.80;1.10;;;;;;;;;;5091753;28;20613;-69
2023/08/06 13:10:25;;;;;;;1.37;1.27;;;;;;;;;;5092465;28;20651;-67
2023/08/06 13:12:54;;;;;;;1.53;1.30;;;;;;;;;;5089517;28;20682;-68
2023/08/06 13:15:23;;;;;;;1.50;1.10;;;;;;;;;;5090074;28;20632;-68
2023/08/06 13:17:52;;;;;;;2.83;1.13;;;;;;;;;;5076439;28;20603;-68
2023/08/06 13:20:20;;;;;;;1.37;1.07;;;;;;;;;;5092028;28;20661;-68
2023/08/06 13:22:50;;;;;;;0.90;0.90;;;;;;;;;;5093864;28;20596;-69
2023/08/06 13:25:19;;;;;;;2.10;1.23;;;;;;;;;;5091290;28;20596;-68
2023/08/06 13:27:47;;;;;;;1.33;0.90;;;;;;;;;;5092563;28;20592;-68
2023/08/06 13:30:16;;;;;;;2.00;1.20;;;;;;;;;;5093829;28;20624;-68
2023/08/06 13:32:45;;;;;;;1.20;1.20;;;;;;;;;;5091180;28;20621;-70
2023/08/06 13:35:14;;;;;;;1.60;1.50;;;;;;;;;;5093254;28;20640;-69
2023/08/06 13:37:42;;;;;;;3.07;0.90;;;;;;;;;;5089667;28;20607;-68
2023/08/06 13:40:11;;;;;;;0.90;0.90;;;;;;;;;;5092358;28;20653;-69
2023/08/06 13:42:39;;;;;;;2.20;1.00;;;;;;;;;;5093238;28;20588;-69
2023/08/06 13:45:08;;;;;;;1.90;1.07;;;;;;;;;;5074924;28;21117;-69
2023/08/06 13:47:36;;;;;;;1.50;1.00;;;;;;;;;;5075047;28;20642;-68
2023/08/06 13:50:06;;;;;;;1.60;0.80;;;;;;;;;;5093234;28;20957;-69
2023/08/06 13:52:35;;;;;;;1.10;0.90;;;;;;;;;;5094016;28;20624;-69
2023/08/06 13:55:04;;;;;;;0.90;0.90;;;;;;;;;;5075381;28;21208;-69
2023/08/06 13:57:32;;;;;;;1.40;1.20;;;;;;;;;;5093501;28;20605;-68
2023/08/06 14:00:00;;;;;;;1.53;1.10;;;;;;;;;;5092694;28;21249;-68
2023/08/06 14:02:29;;;;;;;7.10;1.67;;;;;;;;;;5084116;28;21182;-68
2023/08/06 14:04:57;;;;;;;1.10;1.10;;;;;;;;;;5075561;28;20621;-68
2023/08/06 14:07:27;;;;;;;1.57;1.07;;;;;;;;;;5092537;28;21171;-67
2023/08/06 14:09:57;;;;;;;2.40;2.20;;;;;;;;;;5074274;28;21037;-66
2023/08/06 14:12:25;;;;;;;1.00;1.00;;;;;;;;;;5085361;28;21169;-66
2023/08/06 14:14:53;;;;;;;1.83;1.33;;;;;;;;;;5073545;28;20980;-68
2023/08/06 14:17:21;;;;;;;1.37;1.17;;;;;;;;;;5090759;28;20646;-69
2023/08/06 14:19:49;;;;;;;1.53;1.27;;;;;;;;;;5083430;28;20640;-69
2023/08/06 14:22:18;;;;;;;1.57;1.47;;;;;;;;;;5086348;28;20645;-69
2023/08/06 14:24:48;;;;;;;1.63;1.50;;;;;;;;;;5091573;28;20620;-69
2023/08/06 14:27:16;;;;;;;2.00;1.90;;;;;;;;;;5083792;28;20693;-69
2023/08/06 14:29:44;;;;;;;4.00;1.57;;;;;;;;;;5085373;28;20628;-69
2023/08/06 14:32:12;;;;;;;1.10;1.10;;;;;;;;;;5078120;28;21158;-67
2023/08/06 14:34:40;;;;;;;3.00;1.80;;;;;;;;;;5067590;28;20621;-69
2023/08/06 14:37:08;;;;;;;1.60;1.50;;;;;;;;;;5093860;28;20973;-67
2023/08/06 14:39:37;;;;;;;1.97;1.87;;;;;;;;;;5087711;28;20729;-69
2023/08/06 14:42:07;;;;;;;1.70;1.60;;;;;;;;;;5091095;28;20621;-69
2023/08/06 14:44:35;;;;;;;1.70;1.60;;;;;;;;;;5091530;28;20983;-68
2023/08/06 14:47:03;;;;;;;2.20;1.83;;;;;;;;;;5091864;28;20643;-69
2023/08/06 14:49:31;;;;;;;1.97;1.87;;;;;;;;;;5091989;28;20595;-70
2023/08/06 14:52:01;;;;;;;2.00;1.90;;;;;;;;;;5079871;28;20629;-69
2023/08/06 14:54:30;;;;;;;6.20;2.27;;;;;;;;;;5086343;28;20603;-68